sensor_id;sensor_type;location;lat;lon;timestamp;temperature;humidity
47660;DHT22;33403;43.608;1.458;2023-06-26T00:01:23;22.90;99.90
47660;DHT22;33403;43.608;1.458;2023-06-26T00:03:49;22.90;99.90
47660;DHT22;33403;43.608;1.458;2023-06-26T00:06:14;22.80;99.90
47660;DHT22;33403;43.608;1.458;2023-06-26T00:08:40;22.80;99.90
47660;DHT22;33403;43.608;1.458;2023-06-26T00:11:06;22.80;99.90
47660;DHT22;33403;43.608;1.458;2023-06-26T00:13:32;22.80;99.90
47660;DHT22;33403;43.608;1.458;2023-06-26T00:15:57;22.80;99.90
47660;DHT22;33403;43.608;1.458;2023-06-26T00:18:23;22.70;99.90
47660;DHT22;33403;43.608;1.458;2023-06-26T00:20:49;22.70;99.90
47660;DHT22;33403;43.608;1.458;2023-06-26T00:23:18;22.80;99.90
47660;DHT22;33403;43.608;1.458;2023-06-26T00:25:44;22.70;99.90
47660;DHT22;33403;43.608;1.458;2023-06-26T00:28:10;22.70;99.90
47660;DHT22;33403;43.608;1.458;2023-06-26T00:30:35;22.70;99.90
47660;DHT22;33403;43.608;1.458;2023-06-26T00:33:01;22.70;99.90
47660;DHT22;33403;43.608;1.458;2023-06-26T00:35:27;22.70;99.90
47660;DHT22;33403;43.608;1.458;2023-06-26T00:37:53;22.70;99.90
47660;DHT22;33403;43.608;1.458;2023-06-26T00:40:18;22.70;99.90
47660;DHT22;33403;43.608;1.458;2023-06-26T00:42:44;22.70;99.90
47660;DHT22;33403;43.608;1.458;2023-06-26T00:45:09;22.70;99.90
47660;DHT22;33403;43.608;1.458;2023-06-26T00:47:35;22.70;99.90
47660;DHT22;33403;43.608;1.458;2023-06-26T00:50:01;22.60;99.90
47660;DHT22;33403;43.608;1.458;2023-06-26T00:52:28;22.60;99.90
47660;DHT22;33403;43.608;1.458;2023-06-26T00:54:54;22.60;99.90
47660;DHT22;33403;43.608;1.458;2023-06-26T00:57:20;22.60;99.90
47660;DHT22;33403;43.608;1.458;2023-06-26T00:59:46;22.60;99.90
47660;DHT22;33403;43.608;1.458;2023-06-26T01:02:11;22.60;99.90
47660;DHT22;33403;43.608;1.458;2023-06-26T01:04:37;22.60;99.90
47660;DHT22;33403;43.608;1.458;2023-06-26T01:07:06;22.60;99.90
47660;DHT22;33403;43.608;1.458;2023-06-26T01:09:34;22.60;99.90
47660;DHT22;33403;43.608;1.458;2023-06-26T01:12:00;22.60;99.90
47660;DHT22;33403;43.608;1.458;2023-06-26T01:14:25;22.60;99.90
47660;DHT22;33403;43.608;1.458;2023-06-26T01:16:51;22.60;99.90
47660;DHT22;33403;43.608;1.458;2023-06-26T01:19:26;22.50;99.90
47660;DHT22;33403;43.608;1.458;2023-06-26T01:25:03;22.50;99.90
47660;DHT22;33403;43.608;1.458;2023-06-26T01:27:35;22.60;99.90
47660;DHT22;33403;43.608;1.458;2023-06-26T01:30:02;22.50;99.90
47660;DHT22;33403;43.608;1.458;2023-06-26T01:32:31;22.50;99.90
47660;DHT22;33403;43.608;1.458;2023-06-26T01:34:57;22.50;99.90
47660;DHT22;33403;43.608;1.458;2023-06-26T01:37:23;22.50;99.90
47660;DHT22;33403;43.608;1.458;2023-06-26T01:39:49;22.50;99.90
47660;DHT22;33403;43.608;1.458;2023-06-26T01:42:14;22.50;99.90
47660;DHT22;33403;43.608;1.458;2023-06-26T01:44:45;22.50;99.90
47660;DHT22;33403;43.608;1.458;2023-06-26T01:47:13;22.50;99.90
47660;DHT22;33403;43.608;1.458;2023-06-26T01:50:22;22.50;99.90
47660;DHT22;33403;43.608;1.458;2023-06-26T01:52:42;22.50;99.90
47660;DHT22;33403;43.608;1.458;2023-06-26T01:55:48;22.50;99.90
47660;DHT22;33403;43.608;1.458;2023-06-26T01:58:17;22.50;99.90
47660;DHT22;33403;43.608;1.458;2023-06-26T02:00:46;22.50;99.90
47660;DHT22;33403;43.608;1.458;2023-06-26T02:03:11;22.50;99.90
47660;DHT22;33403;43.608;1.458;2023-06-26T02:05:37;22.50;99.90
47660;DHT22;33403;43.608;1.458;2023-06-26T02:08:03;22.50;99.90
47660;DHT22;33403;43.608;1.458;2023-06-26T02:10:28;22.50;99.90
47660;DHT22;33403;43.608;1.458;2023-06-26T02:12:55;22.40;99.90
47660;DHT22;33403;43.608;1.458;2023-06-26T02:15:21;22.40;99.90
47660;DHT22;33403;43.608;1.458;2023-06-26T02:17:47;22.40;99.90
47660;DHT22;33403;43.608;1.458;2023-06-26T02:20:16;22.40;99.90
47660;DHT22;33403;43.608;1.458;2023-06-26T02:22:42;22.40;99.90
47660;DHT22;33403;43.608;1.458;2023-06-26T02:25:09;22.40;99.90
47660;DHT22;33403;43.608;1.458;2023-06-26T02:27:35;22.40;99.90
47660;DHT22;33403;43.608;1.458;2023-06-26T02:30:01;22.40;99.90
47660;DHT22;33403;43.608;1.458;2023-06-26T02:32:27;22.30;99.90
47660;DHT22;33403;43.608;1.458;2023-06-26T02:34:52;22.30;99.90
47660;DHT22;33403;43.608;1.458;2023-06-26T02:37:19;22.40;99.90
47660;DHT22;33403;43.608;1.458;2023-06-26T02:39:44;22.40;99.90
47660;DHT22;33403;43.608;1.458;2023-06-26T02:42:10;22.30;99.90
47660;DHT22;33403;43.608;1.458;2023-06-26T02:44:36;22.40;99.90
47660;DHT22;33403;43.608;1.458;2023-06-26T02:47:01;22.30;99.90
47660;DHT22;33403;43.608;1.458;2023-06-26T02:49:27;22.30;99.90
47660;DHT22;33403;43.608;1.458;2023-06-26T02:51:53;22.30;99.90
47660;DHT22;33403;43.608;1.458;2023-06-26T02:54:18;22.30;99.90
47660;DHT22;33403;43.608;1.458;2023-06-26T02:56:44;22.30;99.90
47660;DHT22;33403;43.608;1.458;2023-06-26T02:59:09;22.20;99.90
47660;DHT22;33403;43.608;1.458;2023-06-26T03:01:35;22.30;99.90
47660;DHT22;33403;43.608;1.458;2023-06-26T03:04:01;22.30;99.90
47660;DHT22;33403;43.608;1.458;2023-06-26T03:06:27;22.30;99.90
47660;DHT22;33403;43.608;1.458;2023-06-26T03:08:53;22.30;99.90
47660;DHT22;33403;43.608;1.458;2023-06-26T03:11:19;22.30;99.90
47660;DHT22;33403;43.608;1.458;2023-06-26T03:13:44;22.30;99.90
47660;DHT22;33403;43.608;1.458;2023-06-26T03:16:10;22.30;99.90
47660;DHT22;33403;43.608;1.458;2023-06-26T03:18:36;22.30;99.90
47660;DHT22;33403;43.608;1.458;2023-06-26T03:21:02;22.30;99.90
47660;DHT22;33403;43.608;1.458;2023-06-26T03:23:27;22.30;99.90
47660;DHT22;33403;43.608;1.458;2023-06-26T03:25:53;22.20;99.90
47660;DHT22;33403;43.608;1.458;2023-06-26T03:28:19;22.30;99.90
47660;DHT22;33403;43.608;1.458;2023-06-26T03:30:45;22.30;99.90
47660;DHT22;33403;43.608;1.458;2023-06-26T03:33:10;22.20;99.90
47660;DHT22;33403;43.608;1.458;2023-06-26T03:35:36;22.20;99.90
47660;DHT22;33403;43.608;1.458;2023-06-26T03:38:04;22.20;99.90
47660;DHT22;33403;43.608;1.458;2023-06-26T03:40:29;22.30;99.90
47660;DHT22;33403;43.608;1.458;2023-06-26T03:42:55;22.20;99.90
47660;DHT22;33403;43.608;1.458;2023-06-26T03:45:21;22.20;99.90
47660;DHT22;33403;43.608;1.458;2023-06-26T03:47:46;22.20;99.90
47660;DHT22;33403;43.608;1.458;2023-06-26T03:50:15;22.20;99.90
47660;DHT22;33403;43.608;1.458;2023-06-26T03:52:41;22.20;99.90
47660;DHT22;33403;43.608;1.458;2023-06-26T03:55:07;22.20;99.90
47660;DHT22;33403;43.608;1.458;2023-06-26T03:57:33;22.20;99.90
47660;DHT22;33403;43.608;1.458;2023-06-26T03:59:59;22.20;99.90
47660;DHT22;33403;43.608;1.458;2023-06-26T04:02:24;22.10;99.90
47660;DHT22;33403;43.608;1.458;2023-06-26T04:04:50;22.10;99.90
47660;DHT22;33403;43.608;1.458;2023-06-26T04:07:17;22.10;99.90
47660;DHT22;33403;43.608;1.458;2023-06-26T04:09:43;22.10;99.90
47660;DHT22;33403;43.608;1.458;2023-06-26T04:12:09;22.10;99.90
47660;DHT22;33403;43.608;1.458;2023-06-26T04:14:34;22.10;99.90
47660;DHT22;33403;43.608;1.458;2023-06-26T04:17:00;22.10;99.90
47660;DHT22;33403;43.608;1.458;2023-06-26T04:19:29;22.10;99.90
47660;DHT22;33403;43.608;1.458;2023-06-26T04:21:56;22.10;99.90
47660;DHT22;33403;43.608;1.458;2023-06-26T04:24:22;22.10;99.90
47660;DHT22;33403;43.608;1.458;2023-06-26T04:26:47;22.10;99.90
47660;DHT22;33403;43.608;1.458;2023-06-26T04:29:13;22.10;99.90
47660;DHT22;33403;43.608;1.458;2023-06-26T04:31:39;22.10;99.90
47660;DHT22;33403;43.608;1.458;2023-06-26T04:34:05;22.10;99.90
47660;DHT22;33403;43.608;1.458;2023-06-26T04:36:31;22.10;99.90
47660;DHT22;33403;43.608;1.458;2023-06-26T04:38:57;22.10;99.90
47660;DHT22;33403;43.608;1.458;2023-06-26T04:41:24;22.10;99.90
47660;DHT22;33403;43.608;1.458;2023-06-26T04:43:49;22.10;99.90
47660;DHT22;33403;43.608;1.458;2023-06-26T04:46:15;22.10;99.90
47660;DHT22;33403;43.608;1.458;2023-06-26T04:48:41;22.10;99.90
47660;DHT22;33403;43.608;1.458;2023-06-26T04:51:06;22.10;99.90
47660;DHT22;33403;43.608;1.458;2023-06-26T04:53:32;22.10;99.90
47660;DHT22;33403;43.608;1.458;2023-06-26T04:55:58;22.00;99.90
47660;DHT22;33403;43.608;1.458;2023-06-26T04:58:23;22.00;99.90
47660;DHT22;33403;43.608;1.458;2023-06-26T05:00:49;22.00;99.90
47660;DHT22;33403;43.608;1.458;2023-06-26T05:03:18;22.00;99.90
47660;DHT22;33403;43.608;1.458;2023-06-26T05:05:44;22.00;99.90
47660;DHT22;33403;43.608;1.458;2023-06-26T05:08:17;22.00;99.90
47660;DHT22;33403;43.608;1.458;2023-06-26T05:10:44;22.00;99.90
47660;DHT22;33403;43.608;1.458;2023-06-26T05:13:10;22.00;99.90
47660;DHT22;33403;43.608;1.458;2023-06-26T05:15:36;22.00;99.90
47660;DHT22;33403;43.608;1.458;2023-06-26T05:18:02;22.00;99.90
47660;DHT22;33403;43.608;1.458;2023-06-26T05:20:28;22.00;99.90
47660;DHT22;33403;43.608;1.458;2023-06-26T05:22:54;22.00;99.90
47660;DHT22;33403;43.608;1.458;2023-06-26T05:25:20;21.90;99.90
47660;DHT22;33403;43.608;1.458;2023-06-26T05:27:47;21.90;99.90
47660;DHT22;33403;43.608;1.458;2023-06-26T05:30:13;21.90;99.90
47660;DHT22;33403;43.608;1.458;2023-06-26T05:32:40;21.90;99.90
47660;DHT22;33403;43.608;1.458;2023-06-26T05:35:06;21.90;99.90
47660;DHT22;33403;43.608;1.458;2023-06-26T05:37:33;21.90;99.90
47660;DHT22;33403;43.608;1.458;2023-06-26T05:40:00;22.00;99.90
47660;DHT22;33403;43.608;1.458;2023-06-26T05:42:29;22.00;99.90
47660;DHT22;33403;43.608;1.458;2023-06-26T05:44:55;22.00;99.90
47660;DHT22;33403;43.608;1.458;2023-06-26T05:47:21;22.00;99.90
47660;DHT22;33403;43.608;1.458;2023-06-26T05:49:47;22.00;99.90
47660;DHT22;33403;43.608;1.458;2023-06-26T05:52:13;22.00;99.90
47660;DHT22;33403;43.608;1.458;2023-06-26T05:54:39;22.00;99.90
47660;DHT22;33403;43.608;1.458;2023-06-26T05:57:05;22.00;99.90
47660;DHT22;33403;43.608;1.458;2023-06-26T05:59:31;22.00;99.90
47660;DHT22;33403;43.608;1.458;2023-06-26T06:01:57;22.10;99.90
47660;DHT22;33403;43.608;1.458;2023-06-26T06:04:23;22.10;99.90
47660;DHT22;33403;43.608;1.458;2023-06-26T06:06:49;22.00;99.90
47660;DHT22;33403;43.608;1.458;2023-06-26T06:09:14;22.10;99.90
47660;DHT22;33403;43.608;1.458;2023-06-26T06:11:40;22.10;99.90
47660;DHT22;33403;43.608;1.458;2023-06-26T06:14:06;22.10;99.90
47660;DHT22;33403;43.608;1.458;2023-06-26T06:16:32;22.20;99.90
47660;DHT22;33403;43.608;1.458;2023-06-26T06:18:57;22.10;99.90
47660;DHT22;33403;43.608;1.458;2023-06-26T06:21:23;22.20;99.90
47660;DHT22;33403;43.608;1.458;2023-06-26T06:23:48;22.20;99.90
47660;DHT22;33403;43.608;1.458;2023-06-26T06:26:14;22.20;99.90
47660;DHT22;33403;43.608;1.458;2023-06-26T06:28:40;22.20;99.90
47660;DHT22;33403;43.608;1.458;2023-06-26T06:31:05;22.20;99.90
47660;DHT22;33403;43.608;1.458;2023-06-26T06:33:31;22.20;99.90
47660;DHT22;33403;43.608;1.458;2023-06-26T06:35:57;22.10;99.90
47660;DHT22;33403;43.608;1.458;2023-06-26T06:38:23;22.10;99.90
47660;DHT22;33403;43.608;1.458;2023-06-26T06:40:48;22.10;99.90
47660;DHT22;33403;43.608;1.458;2023-06-26T06:43:14;22.20;99.90
47660;DHT22;33403;43.608;1.458;2023-06-26T06:45:40;22.20;99.90
47660;DHT22;33403;43.608;1.458;2023-06-26T06:48:05;22.20;99.90
47660;DHT22;33403;43.608;1.458;2023-06-26T06:50:31;22.30;99.90
47660;DHT22;33403;43.608;1.458;2023-06-26T06:52:57;22.30;99.90
47660;DHT22;33403;43.608;1.458;2023-06-26T06:55:22;22.40;99.90
47660;DHT22;33403;43.608;1.458;2023-06-26T06:57:49;22.40;99.90
47660;DHT22;33403;43.608;1.458;2023-06-26T07:00:16;22.50;99.90
47660;DHT22;33403;43.608;1.458;2023-06-26T07:02:45;22.50;99.90
47660;DHT22;33403;43.608;1.458;2023-06-26T07:05:12;22.60;99.90
47660;DHT22;33403;43.608;1.458;2023-06-26T07:07:38;22.60;99.90
47660;DHT22;33403;43.608;1.458;2023-06-26T07:10:09;22.60;99.90
47660;DHT22;33403;43.608;1.458;2023-06-26T07:12:36;22.70;99.90
47660;DHT22;33403;43.608;1.458;2023-06-26T07:15:03;22.70;99.90
47660;DHT22;33403;43.608;1.458;2023-06-26T07:17:30;22.70;99.90
47660;DHT22;33403;43.608;1.458;2023-06-26T07:19:56;22.80;99.90
47660;DHT22;33403;43.608;1.458;2023-06-26T07:22:22;22.80;99.90
47660;DHT22;33403;43.608;1.458;2023-06-26T07:24:48;22.80;99.90
47660;DHT22;33403;43.608;1.458;2023-06-26T07:27:17;22.90;99.90
47660;DHT22;33403;43.608;1.458;2023-06-26T07:29:44;22.90;99.90
47660;DHT22;33403;43.608;1.458;2023-06-26T07:32:10;22.90;99.90
47660;DHT22;33403;43.608;1.458;2023-06-26T07:34:36;23.00;99.90
47660;DHT22;33403;43.608;1.458;2023-06-26T07:37:01;23.00;99.90
47660;DHT22;33403;43.608;1.458;2023-06-26T07:39:27;23.00;99.90
47660;DHT22;33403;43.608;1.458;2023-06-26T07:41:52;23.10;99.90
47660;DHT22;33403;43.608;1.458;2023-06-26T07:44:18;23.10;99.90
47660;DHT22;33403;43.608;1.458;2023-06-26T07:46:44;23.20;99.90
47660;DHT22;33403;43.608;1.458;2023-06-26T07:49:11;23.20;99.90
47660;DHT22;33403;43.608;1.458;2023-06-26T07:51:37;23.30;99.90
47660;DHT22;33403;43.608;1.458;2023-06-26T07:54:03;23.30;99.90
47660;DHT22;33403;43.608;1.458;2023-06-26T07:56:29;23.30;99.90
47660;DHT22;33403;43.608;1.458;2023-06-26T07:58:55;23.40;99.90
47660;DHT22;33403;43.608;1.458;2023-06-26T08:01:23;23.50;99.90
47660;DHT22;33403;43.608;1.458;2023-06-26T08:03:49;23.60;99.90
47660;DHT22;33403;43.608;1.458;2023-06-26T08:06:14;23.80;99.90
47660;DHT22;33403;43.608;1.458;2023-06-26T08:08:40;23.90;99.90
47660;DHT22;33403;43.608;1.458;2023-06-26T08:11:06;24.10;99.90
47660;DHT22;33403;43.608;1.458;2023-06-26T08:13:31;24.10;99.90
47660;DHT22;33403;43.608;1.458;2023-06-26T08:15:57;24.00;99.90
47660;DHT22;33403;43.608;1.458;2023-06-26T08:18:23;23.90;99.90
47660;DHT22;33403;43.608;1.458;2023-06-26T08:20:48;23.80;99.90
47660;DHT22;33403;43.608;1.458;2023-06-26T08:23:14;23.90;99.90
47660;DHT22;33403;43.608;1.458;2023-06-26T08:25:40;24.00;99.90
47660;DHT22;33403;43.608;1.458;2023-06-26T08:28:05;24.00;99.90
47660;DHT22;33403;43.608;1.458;2023-06-26T08:30:32;24.10;99.90
47660;DHT22;33403;43.608;1.458;2023-06-26T08:32:58;24.20;99.90
47660;DHT22;33403;43.608;1.458;2023-06-26T08:35:23;24.50;99.90
47660;DHT22;33403;43.608;1.458;2023-06-26T08:37:49;24.70;99.90
47660;DHT22;33403;43.608;1.458;2023-06-26T08:40:18;24.70;99.90
47660;DHT22;33403;43.608;1.458;2023-06-26T08:42:44;24.70;99.90
47660;DHT22;33403;43.608;1.458;2023-06-26T08:45:10;24.60;99.90
47660;DHT22;33403;43.608;1.458;2023-06-26T08:47:37;24.30;99.90
47660;DHT22;33403;43.608;1.458;2023-06-26T08:50:12;24.00;99.90
47660;DHT22;33403;43.608;1.458;2023-06-26T08:52:56;23.70;99.90
47660;DHT22;33403;43.608;1.458;2023-06-26T08:55:26;23.60;99.90
47660;DHT22;33403;43.608;1.458;2023-06-26T08:57:52;23.70;99.90
47660;DHT22;33403;43.608;1.458;2023-06-26T09:00:19;24.00;99.90
47660;DHT22;33403;43.608;1.458;2023-06-26T09:02:45;24.40;99.90
47660;DHT22;33403;43.608;1.458;2023-06-26T09:05:11;24.70;99.90
47660;DHT22;33403;43.608;1.458;2023-06-26T09:07:37;24.80;99.90
47660;DHT22;33403;43.608;1.458;2023-06-26T09:10:02;24.90;99.90
47660;DHT22;33403;43.608;1.458;2023-06-26T09:12:28;25.00;99.90
47660;DHT22;33403;43.608;1.458;2023-06-26T09:14:57;25.10;99.90
47660;DHT22;33403;43.608;1.458;2023-06-26T09:17:29;25.20;99.90
47660;DHT22;33403;43.608;1.458;2023-06-26T09:19:55;25.20;99.90
47660;DHT22;33403;43.608;1.458;2023-06-26T09:22:21;25.10;99.90
47660;DHT22;33403;43.608;1.458;2023-06-26T09:24:48;25.30;99.90
47660;DHT22;33403;43.608;1.458;2023-06-26T09:27:14;25.40;99.90
47660;DHT22;33403;43.608;1.458;2023-06-26T09:29:39;25.50;99.90
47660;DHT22;33403;43.608;1.458;2023-06-26T09:32:08;25.50;99.90
47660;DHT22;33403;43.608;1.458;2023-06-26T09:34:33;25.50;99.90
47660;DHT22;33403;43.608;1.458;2023-06-26T09:36:59;25.40;99.90
47660;DHT22;33403;43.608;1.458;2023-06-26T09:39:30;25.20;99.90
47660;DHT22;33403;43.608;1.458;2023-06-26T09:41:56;25.10;99.90
47660;DHT22;33403;43.608;1.458;2023-06-26T09:44:22;25.00;99.90
47660;DHT22;33403;43.608;1.458;2023-06-26T09:46:48;24.80;99.90
47660;DHT22;33403;43.608;1.458;2023-06-26T09:49:14;24.70;99.90
47660;DHT22;33403;43.608;1.458;2023-06-26T09:51:41;24.60;99.90
47660;DHT22;33403;43.608;1.458;2023-06-26T09:54:08;24.60;99.90
47660;DHT22;33403;43.608;1.458;2023-06-26T09:56:35;24.70;99.90
47660;DHT22;33403;43.608;1.458;2023-06-26T09:59:03;25.20;99.90
47660;DHT22;33403;43.608;1.458;2023-06-26T10:01:30;25.50;99.90
47660;DHT22;33403;43.608;1.458;2023-06-26T10:03:56;25.50;99.90
47660;DHT22;33403;43.608;1.458;2023-06-26T10:06:28;25.40;99.90
47660;DHT22;33403;43.608;1.458;2023-06-26T10:08:58;25.10;99.90
47660;DHT22;33403;43.608;1.458;2023-06-26T10:11:25;24.80;99.90
47660;DHT22;33403;43.608;1.458;2023-06-26T10:13:55;24.60;99.90
47660;DHT22;33403;43.608;1.458;2023-06-26T10:16:24;24.40;99.90
47660;DHT22;33403;43.608;1.458;2023-06-26T10:18:53;24.20;99.90
47660;DHT22;33403;43.608;1.458;2023-06-26T10:21:22;24.10;99.90
47660;DHT22;33403;43.608;1.458;2023-06-26T10:23:50;24.00;99.90
47660;DHT22;33403;43.608;1.458;2023-06-26T10:26:17;23.90;99.90
47660;DHT22;33403;43.608;1.458;2023-06-26T10:28:47;23.90;99.90
47660;DHT22;33403;43.608;1.458;2023-06-26T10:31:19;23.80;99.90
47660;DHT22;33403;43.608;1.458;2023-06-26T10:33:45;23.70;99.90
47660;DHT22;33403;43.608;1.458;2023-06-26T10:36:15;23.70;99.90
47660;DHT22;33403;43.608;1.458;2023-06-26T10:38:52;23.60;99.90
47660;DHT22;33403;43.608;1.458;2023-06-26T10:41:25;23.60;99.90
47660;DHT22;33403;43.608;1.458;2023-06-26T10:44:05;23.60;99.90
47660;DHT22;33403;43.608;1.458;2023-06-26T10:46:49;23.60;99.90
47660;DHT22;33403;43.608;1.458;2023-06-26T10:49:15;23.60;99.90
47660;DHT22;33403;43.608;1.458;2023-06-26T10:51:50;23.60;99.90
47660;DHT22;33403;43.608;1.458;2023-06-26T10:54:18;23.80;99.90
47660;DHT22;33403;43.608;1.458;2023-06-26T10:56:48;23.90;99.90
47660;DHT22;33403;43.608;1.458;2023-06-26T10:59:18;24.00;99.90
47660;DHT22;33403;43.608;1.458;2023-06-26T11:01:45;24.10;99.90
47660;DHT22;33403;43.608;1.458;2023-06-26T11:04:13;24.00;99.90
47660;DHT22;33403;43.608;1.458;2023-06-26T11:06:41;23.90;99.90
47660;DHT22;33403;43.608;1.458;2023-06-26T11:09:15;23.80;99.90
47660;DHT22;33403;43.608;1.458;2023-06-26T11:14:20;23.60;99.90
47660;DHT22;33403;43.608;1.458;2023-06-26T11:16:46;23.60;99.90
47660;DHT22;33403;43.608;1.458;2023-06-26T11:19:13;23.70;99.90
47660;DHT22;33403;43.608;1.458;2023-06-26T11:21:39;23.70;99.90
47660;DHT22;33403;43.608;1.458;2023-06-26T11:24:09;23.80;99.90
47660;DHT22;33403;43.608;1.458;2023-06-26T11:26:43;24.00;99.90
47660;DHT22;33403;43.608;1.458;2023-06-26T11:29:09;24.10;99.90
47660;DHT22;33403;43.608;1.458;2023-06-26T11:31:39;24.20;99.90
47660;DHT22;33403;43.608;1.458;2023-06-26T11:34:09;24.50;99.90
47660;DHT22;33403;43.608;1.458;2023-06-26T11:36:37;24.90;99.90
47660;DHT22;33403;43.608;1.458;2023-06-26T11:39:05;25.20;99.90
47660;DHT22;33403;43.608;1.458;2023-06-26T11:41:32;25.30;99.90
47660;DHT22;33403;43.608;1.458;2023-06-26T11:44:08;25.20;99.90
47660;DHT22;33403;43.608;1.458;2023-06-26T11:46:37;25.20;99.90
47660;DHT22;33403;43.608;1.458;2023-06-26T11:49:04;25.20;99.90
47660;DHT22;33403;43.608;1.458;2023-06-26T11:51:30;25.00;99.90
47660;DHT22;33403;43.608;1.458;2023-06-26T11:53:55;24.80;99.90
47660;DHT22;33403;43.608;1.458;2023-06-26T11:56:21;24.70;99.90
47660;DHT22;33403;43.608;1.458;2023-06-26T11:59:05;24.70;99.90
47660;DHT22;33403;43.608;1.458;2023-06-26T12:01:41;24.90;99.90
47660;DHT22;33403;43.608;1.458;2023-06-26T12:04:10;25.00;99.90
47660;DHT22;33403;43.608;1.458;2023-06-26T12:06:38;25.30;99.90
47660;DHT22;33403;43.608;1.458;2023-06-26T12:09:08;25.40;99.90
47660;DHT22;33403;43.608;1.458;2023-06-26T12:11:37;25.50;99.90
47660;DHT22;33403;43.608;1.458;2023-06-26T12:14:03;25.70;99.90
47660;DHT22;33403;43.608;1.458;2023-06-26T12:16:31;25.70;99.90
47660;DHT22;33403;43.608;1.458;2023-06-26T12:18:59;25.80;99.90
47660;DHT22;33403;43.608;1.458;2023-06-26T12:24:06;25.70;99.90
47660;DHT22;33403;43.608;1.458;2023-06-26T12:26:32;25.70;99.90
47660;DHT22;33403;43.608;1.458;2023-06-26T12:29:14;25.70;99.90
47660;DHT22;33403;43.608;1.458;2023-06-26T12:31:42;25.70;99.90
47660;DHT22;33403;43.608;1.458;2023-06-26T12:34:12;25.70;99.90
47660;DHT22;33403;43.608;1.458;2023-06-26T12:39:10;25.80;99.90
47660;DHT22;33403;43.608;1.458;2023-06-26T12:41:54;26.00;99.90
47660;DHT22;33403;43.608;1.458;2023-06-26T12:44:29;26.10;99.90
47660;DHT22;33403;43.608;1.458;2023-06-26T12:47:00;26.20;99.90
47660;DHT22;33403;43.608;1.458;2023-06-26T12:49:45;26.20;99.90
47660;DHT22;33403;43.608;1.458;2023-06-26T12:52:17;26.40;99.90
47660;DHT22;33403;43.608;1.458;2023-06-26T12:54:44;26.40;99.90
47660;DHT22;33403;43.608;1.458;2023-06-26T12:57:12;26.50;99.90
47660;DHT22;33403;43.608;1.458;2023-06-26T12:59:42;26.40;99.90
47660;DHT22;33403;43.608;1.458;2023-06-26T13:02:08;26.40;99.90
47660;DHT22;33403;43.608;1.458;2023-06-26T13:04:34;26.40;99.90
47660;DHT22;33403;43.608;1.458;2023-06-26T13:07:01;26.40;99.90
47660;DHT22;33403;43.608;1.458;2023-06-26T13:09:32;26.40;99.90
47660;DHT22;33403;43.608;1.458;2023-06-26T13:11:59;26.50;99.90
47660;DHT22;33403;43.608;1.458;2023-06-26T13:14:24;26.60;99.90
47660;DHT22;33403;43.608;1.458;2023-06-26T13:16:50;26.70;99.90
47660;DHT22;33403;43.608;1.458;2023-06-26T13:19:16;26.80;99.90
47660;DHT22;33403;43.608;1.458;2023-06-26T13:21:41;26.80;99.90
47660;DHT22;33403;43.608;1.458;2023-06-26T13:24:08;26.80;99.90
47660;DHT22;33403;43.608;1.458;2023-06-26T13:26:34;26.80;99.90
47660;DHT22;33403;43.608;1.458;2023-06-26T13:29:00;26.80;99.90
47660;DHT22;33403;43.608;1.458;2023-06-26T13:31:26;26.90;99.90
47660;DHT22;33403;43.608;1.458;2023-06-26T13:33:52;26.90;99.90
47660;DHT22;33403;43.608;1.458;2023-06-26T13:36:18;26.90;99.90
47660;DHT22;33403;43.608;1.458;2023-06-26T13:38:45;26.90;99.90
47660;DHT22;33403;43.608;1.458;2023-06-26T13:41:11;26.80;99.90
47660;DHT22;33403;43.608;1.458;2023-06-26T13:43:36;26.90;99.90
47660;DHT22;33403;43.608;1.458;2023-06-26T13:46:02;27.00;99.90
47660;DHT22;33403;43.608;1.458;2023-06-26T13:48:29;26.90;99.90
47660;DHT22;33403;43.608;1.458;2023-06-26T13:50:55;27.00;99.90
47660;DHT22;33403;43.608;1.458;2023-06-26T13:53:22;26.90;99.90
47660;DHT22;33403;43.608;1.458;2023-06-26T13:55:48;27.00;99.90
47660;DHT22;33403;43.608;1.458;2023-06-26T13:58:14;27.00;99.90
47660;DHT22;33403;43.608;1.458;2023-06-26T14:00:40;26.90;99.90
47660;DHT22;33403;43.608;1.458;2023-06-26T14:03:06;26.90;99.90
47660;DHT22;33403;43.608;1.458;2023-06-26T14:05:33;26.90;99.90
47660;DHT22;33403;43.608;1.458;2023-06-26T14:07:59;26.90;99.90
47660;DHT22;33403;43.608;1.458;2023-06-26T14:10:25;26.90;99.90
47660;DHT22;33403;43.608;1.458;2023-06-26T14:12:51;27.00;99.90
47660;DHT22;33403;43.608;1.458;2023-06-26T14:15:16;27.00;99.90
47660;DHT22;33403;43.608;1.458;2023-06-26T14:17:42;27.00;99.90
47660;DHT22;33403;43.608;1.458;2023-06-26T14:20:09;27.00;99.90
47660;DHT22;33403;43.608;1.458;2023-06-26T14:22:41;27.10;99.90
47660;DHT22;33403;43.608;1.458;2023-06-26T14:25:08;27.00;99.90
47660;DHT22;33403;43.608;1.458;2023-06-26T14:27:34;27.00;99.90
47660;DHT22;33403;43.608;1.458;2023-06-26T14:30:00;26.90;99.90
47660;DHT22;33403;43.608;1.458;2023-06-26T14:32:26;26.80;99.90
47660;DHT22;33403;43.608;1.458;2023-06-26T14:34:51;26.90;99.90
47660;DHT22;33403;43.608;1.458;2023-06-26T14:37:17;26.90;99.90
47660;DHT22;33403;43.608;1.458;2023-06-26T14:39:44;26.90;99.90
47660;DHT22;33403;43.608;1.458;2023-06-26T14:42:10;26.90;99.90
47660;DHT22;33403;43.608;1.458;2023-06-26T14:44:36;26.80;99.90
47660;DHT22;33403;43.608;1.458;2023-06-26T14:47:02;26.80;99.90
47660;DHT22;33403;43.608;1.458;2023-06-26T14:49:28;26.90;99.90
47660;DHT22;33403;43.608;1.458;2023-06-26T14:51:53;26.90;99.90
47660;DHT22;33403;43.608;1.458;2023-06-26T14:54:19;26.80;99.90
47660;DHT22;33403;43.608;1.458;2023-06-26T14:56:45;26.80;99.90
47660;DHT22;33403;43.608;1.458;2023-06-26T14:59:11;26.70;99.90
47660;DHT22;33403;43.608;1.458;2023-06-26T15:01:38;26.60;99.90
47660;DHT22;33403;43.608;1.458;2023-06-26T15:04:05;26.60;99.90
47660;DHT22;33403;43.608;1.458;2023-06-26T15:06:30;26.40;99.90
47660;DHT22;33403;43.608;1.458;2023-06-26T15:08:56;26.40;99.90
47660;DHT22;33403;43.608;1.458;2023-06-26T15:11:21;26.30;99.90
47660;DHT22;33403;43.608;1.458;2023-06-26T15:13:47;26.30;99.90
47660;DHT22;33403;43.608;1.458;2023-06-26T15:16:13;26.30;99.90
47660;DHT22;33403;43.608;1.458;2023-06-26T15:18:39;26.40;99.90
47660;DHT22;33403;43.608;1.458;2023-06-26T15:21:05;26.40;99.90
47660;DHT22;33403;43.608;1.458;2023-06-26T15:23:31;26.40;99.90
47660;DHT22;33403;43.608;1.458;2023-06-26T15:25:56;26.40;99.90
47660;DHT22;33403;43.608;1.458;2023-06-26T15:28:22;26.30;99.90
47660;DHT22;33403;43.608;1.458;2023-06-26T15:30:48;26.40;99.90
47660;DHT22;33403;43.608;1.458;2023-06-26T15:33:13;26.40;99.90
47660;DHT22;33403;43.608;1.458;2023-06-26T15:35:39;26.40;99.90
47660;DHT22;33403;43.608;1.458;2023-06-26T15:38:05;26.40;99.90
47660;DHT22;33403;43.608;1.458;2023-06-26T15:40:30;26.50;99.90